Time;durP1;ratioP1;P1;durP2;ratioP2;P2;SDS_P1;SDS_P2;PMS_P1;PMS_P2;Temp;Humidity;BMP_temperature;BMP_pressure;BME280_temperature;BME280_humidity;BME280_pressure;Samples;Min_cycle;Max_cycle;Signal;HPM_P1;HPM_P2
2021/05/15 00:00:38;;;;;;;32.03;20.25;;;;;;;6.34;100.00;97050.97;5030499;28;20176;-77
2021/05/15 00:03:04;;;;;;;32.03;19.00;;;;;;;6.34;100.00;97038.34;5029849;28;20515;-77
2021/05/15 00:05:30;;;;;;;33.90;19.75;;;;;;;6.34;100.00;97038.34;5011207;28;20033;-77
2021/05/15 00:07:55;;;;;;;31.48;20.27;;;;;;;6.28;100.00;97034.94;5029711;28;20036;-77
2021/05/15 00:10:21;;;;;;;28.70;18.25;;;;;;;6.25;100.00;97022.13;4996046;28;20512;-77
2021/05/15 00:12:48;;;;;;;31.73;20.60;;;;;;;6.17;100.00;97030.06;5006443;28;20550;-77
2021/05/15 00:15:14;;;;;;;30.77;18.77;;;;;;;6.10;100.00;97030.50;5029863;28;20037;-77
2021/05/15 00:17:41;;;;;;;29.08;18.60;;;;;;;6.06;100.00;97023.34;5012048;28;20095;-77
2021/05/15 00:20:12;;;;;;;30.60;19.58;;;;;;;5.99;100.00;97020.25;5011801;28;20144;-77
2021/05/15 00:22:41;;;;;;;34.53;20.08;;;;;;;5.97;100.00;97011.69;5012819;28;20108;-77
2021/05/15 00:25:08;;;;;;;32.90;19.10;;;;;;;5.91;100.00;97019.06;4996449;28;20052;-77
2021/05/15 00:27:34;;;;;;;30.83;18.95;;;;;;;5.98;100.00;97024.06;5011831;28;20129;-77
2021/05/15 00:30:00;;;;;;;35.22;20.55;;;;;;;6.03;100.00;97027.44;5029693;28;20116;-77
2021/05/15 00:32:26;;;;;;;34.78;19.88;;;;;;;6.02;100.00;97022.34;5012051;28;20530;-77
2021/05/15 00:34:51;;;;;;;31.52;18.95;;;;;;;5.96;100.00;97010.13;5011909;28;20037;-77
2021/05/15 00:37:17;;;;;;;29.15;17.95;;;;;;;5.91;100.00;97021.75;5037899;23;20075;-77
2021/05/15 00:39:43;;;;;;;32.17;18.70;;;;;;;5.94;100.00;97021.16;5049387;28;20496;-77
2021/05/15 00:42:09;;;;;;;27.58;17.63;;;;;;;5.98;100.00;97019.47;5031624;28;20029;-77
2021/05/15 00:44:44;;;;;;;27.00;17.33;;;;;;;5.97;100.00;97012.50;5048793;28;20120;-77
2021/05/15 00:47:17;;;;;;;;;;;;;;;5.95;100.00;97022.75;5051683;28;20051;-78
2021/05/15 00:49:44;;;;;;;27.50;16.40;;;;;;;5.82;100.00;97018.16;5051781;28;19912;-78
2021/05/15 00:52:10;;;;;;;25.92;16.52;;;;;;;5.71;100.00;97034.75;5037164;28;20504;-78
2021/05/15 00:54:37;;;;;;;26.80;16.00;;;;;;;5.59;100.00;97017.25;5054255;28;20032;-78
2021/05/15 00:57:04;;;;;;;26.27;15.77;;;;;;;5.61;100.00;97031.19;5054099;28;20089;-77
2021/05/15 00:59:30;;;;;;;24.35;15.38;;;;;;;5.42;100.00;97027.78;5035843;28;20060;-78
2021/05/15 01:01:56;;;;;;;25.48;15.63;;;;;;;5.43;100.00;97032.06;5055546;28;20089;-78
2021/05/15 01:04:21;;;;;;;22.75;15.20;;;;;;;5.39;100.00;97039.13;5037230;28;20071;-78
2021/05/15 01:06:47;;;;;;;28.45;17.02;;;;;;;5.36;100.00;97030.84;5053640;28;20063;-78
2021/05/15 01:09:12;;;;;;;24.50;16.63;;;;;;;5.43;100.00;97033.94;5054827;28;20033;-77
2021/05/15 01:11:38;;;;;;;25.52;15.55;;;;;;;5.38;100.00;97029.47;5021917;28;20077;-77
2021/05/15 01:14:04;;;;;;;27.10;16.13;;;;;;;5.38;100.00;97031.34;5055505;28;20037;-77
2021/05/15 01:16:34;;;;;;;26.58;16.90;;;;;;;5.45;100.00;97034.44;5054342;28;20033;-77
2021/05/15 01:19:00;;;;;;;16.35;9.02;;;;;;;5.74;100.00;97032.28;5052831;28;20071;-77
2021/05/15 01:21:26;;;;;;;9.77;6.15;;;;;;;6.39;100.00;97042.78;5054396;28;20033;-78
2021/05/15 01:23:52;;;;;;;7.97;4.80;;;;;;;6.82;100.00;97030.50;5036030;28;20041;-78
2021/05/15 01:26:28;;;;;;;9.75;4.40;;;;;;;7.25;100.00;97026.19;5054911;28;20033;-78
2021/05/15 01:28:57;;;;;;;8.23;3.45;;;;;;;7.51;100.00;97019.06;5055420;28;20033;-76
2021/05/15 01:31:24;;;;;;;4.88;2.90;;;;;;;7.69;100.00;97022.63;5035399;28;20041;-76
2021/05/15 01:33:51;;;;;;;4.35;2.20;;;;;;;7.79;100.00;96997.31;5051633;28;20033;-78
2021/05/15 01:36:17;;;;;;;3.63;2.00;;;;;;;8.00;100.00;96998.34;5053347;28;20426;-78
2021/05/15 01:38:43;;;;;;;5.03;2.13;;;;;;;8.23;100.00;96991.72;5034452;28;20140;-77
2021/05/15 01:41:11;;;;;;;2.28;1.77;;;;;;;8.21;100.00;96995.84;5052677;28;20043;-77
2021/05/15 01:43:37;;;;;;;3.00;1.63;;;;;;;8.05;100.00;96995.50;5053554;28;20033;-76
2021/05/15 01:46:05;;;;;;;3.45;1.70;;;;;;;7.80;100.00;96997.00;5050578;28;20029;-78
2021/05/15 01:48:31;;;;;;;4.80;1.67;;;;;;;7.75;100.00;96988.25;5051407;28;20041;-77
2021/05/15 01:50:59;;;;;;;4.07;1.73;;;;;;;7.67;100.00;96997.09;5053804;28;20127;-77
2021/05/15 01:53:26;;;;;;;6.30;1.60;;;;;;;7.53;100.00;97003.41;5035970;28;20048;-78
2021/05/15 01:55:52;;;;;;;4.78;1.60;;;;;;;7.38;100.00;97000.31;5052689;28;20036;-77
2021/05/15 01:58:18;;;;;;;5.68;1.73;;;;;;;7.27;100.00;96983.63;5052799;28;20370;-76
2021/05/15 02:00:44;;;;;;;4.13;2.30;;;;;;;7.18;100.00;97000.81;5050501;28;20128;-77
2021/05/15 02:03:09;;;;;;;3.83;2.40;;;;;;;7.10;100.00;96999.66;5051095;28;20106;-79
2021/05/15 02:05:35;;;;;;;5.55;2.88;;;;;;;7.01;100.00;96998.03;5051259;28;20049;-76
2021/05/15 02:08:00;;;;;;;3.90;2.90;;;;;;;6.92;100.00;96995.28;5054263;28;20028;-78
2021/05/15 02:10:25;;;;;;;6.80;3.17;;;;;;;6.89;100.00;97015.53;5035649;28;20033;-78
2021/05/15 02:12:51;;;;;;;3.95;2.30;;;;;;;6.95;100.00;97004.63;5035442;28;20539;-78
2021/05/15 02:15:17;;;;;;;4.45;2.28;;;;;;;6.98;100.00;97002.13;5052281;28;20033;-79
2021/05/15 02:17:43;;;;;;;4.95;2.03;;;;;;;7.18;100.00;96998.13;5051664;28;20048;-77
2021/05/15 02:20:13;;;;;;;4.88;2.17;;;;;;;7.18;100.00;96996.25;5016997;28;20399;-77
2021/05/15 02:22:38;;;;;;;2.58;1.92;;;;;;;7.19;100.00;96997.84;5051620;28;20033;-77
2021/05/15 02:25:04;;;;;;;6.70;2.67;;;;;;;7.14;100.00;96992.59;5035755;28;20350;-76
2021/05/15 02:27:31;;;;;;;6.32;3.10;;;;;;;7.02;100.00;96989.66;5051025;28;20048;-76
2021/05/15 02:29:57;;;;;;;5.38;2.42;;;;;;;6.94;100.00;96986.91;5033990;28;20492;-78
2021/05/15 02:32:23;;;;;;;2.95;2.25;;;;;;;6.88;100.00;96999.69;5053292;28;20036;-76
2021/05/15 02:34:48;;;;;;;7.60;2.47;;;;;;;6.76;100.00;96988.72;5032738;28;20043;-76
2021/05/15 02:37:13;;;;;;;4.90;3.40;;;;;;;6.72;100.00;96990.41;5049130;28;20146;-77
2021/05/15 02:39:39;;;;;;;7.32;3.20;;;;;;;6.61;100.00;96989.84;5032664;28;20055;-77
2021/05/15 02:42:04;;;;;;;5.88;3.28;;;;;;;6.65;100.00;97000.78;5050927;28;20137;-77
2021/05/15 02:44:30;;;;;;;7.07;3.13;;;;;;;6.56;100.00;96991.84;5032843;28;20037;-77
2021/05/15 02:46:56;;;;;;;4.47;2.63;;;;;;;6.56;100.00;96991.84;5053215;28;20040;-78
2021/05/15 02:49:21;;;;;;;5.47;2.55;;;;;;;6.59;100.00;96994.75;5053167;28;20032;-78
2021/05/15 02:51:46;;;;;;;7.35;2.72;;;;;;;6.59;100.00;97000.13;5051811;28;20545;-78
2021/05/15 02:54:12;;;;;;;6.65;2.80;;;;;;;6.60;100.00;96992.84;5034169;28;20048;-78
2021/05/15 02:56:37;;;;;;;8.07;3.47;;;;;;;6.65;100.00;97006.19;5033913;28;20039;-78
2021/05/15 02:59:05;;;;;;;6.00;4.43;;;;;;;6.58;100.00;97003.88;5033771;28;20095;-77
2021/05/15 03:01:31;;;;;;;7.45;4.03;;;;;;;6.53;100.00;97006.69;5032155;28;20123;-77
2021/05/15 03:03:56;;;;;;;8.93;3.15;;;;;;;6.60;100.00;97001.72;5033944;28;20065;-76
2021/05/15 03:06:22;;;;;;;11.07;4.05;;;;;;;6.59;100.00;96999.31;5016492;28;20041;-77
2021/05/15 03:08:49;;;;;;;9.65;3.45;;;;;;;6.71;100.00;96996.91;5031960;28;20400;-77
2021/05/15 03:11:16;;;;;;;7.18;2.70;;;;;;;6.98;100.00;97002.13;5051005;28;20056;-77
2021/05/15 03:13:41;;;;;;;5.32;2.67;;;;;;;7.25;100.00;97001.97;5032298;28;20028;-77
2021/05/15 03:16:07;;;;;;;7.53;2.20;;;;;;;7.50;100.00;96993.25;5051682;28;20037;-77
2021/05/15 03:18:33;;;;;;;4.13;1.75;;;;;;;7.77;100.00;96991.44;5050543;28;20424;-76
2021/05/15 03:21:01;;;;;;;4.50;1.58;;;;;;;7.97;100.00;96980.09;5050743;28;20391;-77
2021/05/15 03:23:33;;;;;;;4.53;1.33;;;;;;;8.35;100.00;96975.72;5050605;28;20506;-78
2021/05/15 03:26:01;;;;;;;3.17;1.20;;;;;;;8.50;100.00;96975.25;5050305;28;20029;-77
2021/05/15 03:28:27;;;;;;;3.63;1.50;;;;;;;8.53;100.00;96981.94;5031722;28;20039;-77
2021/05/15 03:30:53;;;;;;;2.35;1.25;;;;;;;8.50;100.00;96977.16;5050945;28;20031;-76
2021/05/15 03:33:21;;;;;;;5.15;1.27;;;;;;;8.48;100.00;96965.91;5046738;28;20037;-77
2021/05/15 03:35:47;;;;;;;1.80;1.20;;;;;;;8.47;100.00;96972.38;5032011;28;20362;-78
2021/05/15 03:38:13;;;;;;;6.28;1.30;;;;;;;8.40;100.00;96983.66;5044797;28;20043;-78
2021/05/15 03:40:38;;;;;;;3.25;1.40;;;;;;;8.30;100.00;96985.88;5035791;28;20036;-78
2021/05/15 03:43:10;;;;;;;2.22;1.23;;;;;;;8.26;100.00;96993.00;5053588;28;20110;-77
2021/05/15 03:45:35;;;;;;;3.38;1.50;;;;;;;8.22;100.00;96978.53;5034533;28;20468;-77
2021/05/15 03:48:01;;;;;;;3.30;1.52;;;;;;;8.21;100.00;96990.44;5033334;28;20535;-78
2021/05/15 03:50:29;;;;;;;2.10;1.35;;;;;;;8.13;100.00;96986.59;5051522;28;20040;-77
2021/05/15 03:52:55;;;;;;;5.15;1.63;;;;;;;8.07;100.00;96977.91;5049702;28;20192;-77
2021/05/15 03:55:20;;;;;;;3.40;1.60;;;;;;;8.14;100.00;96993.59;5050211;28;20282;-78
2021/05/15 03:57:50;;;;;;;4.05;1.50;;;;;;;8.24;100.00;97004.06;5052899;28;20132;-78
2021/05/15 04:00:18;;;;;;;7.47;1.38;;;;;;;8.37;100.00;96992.38;5052381;28;20033;-78
2021/05/15 04:02:48;;;;;;;5.30;1.27;;;;;;;8.51;100.00;96995.75;5033958;28;20087;-77
2021/05/15 04:05:22;;;;;;;5.22;1.50;;;;;;;8.72;100.00;97001.28;5051332;28;20438;-78
2021/05/15 04:07:48;;;;;;;3.63;1.55;;;;;;;8.80;100.00;96988.91;5050394;28;20029;-77
2021/05/15 04:10:13;;;;;;;3.20;1.30;;;;;;;8.86;100.00;96977.63;5031748;28;20041;-77
2021/05/15 04:12:48;;;;;;;3.10;1.27;;;;;;;8.98;100.00;96977.75;5048492;28;20044;-77
2021/05/15 04:15:19;;;;;;;3.63;1.10;;;;;;;9.13;100.00;96982.66;5049149;28;20369;-77
2021/05/15 04:17:45;;;;;;;2.90;1.08;;;;;;;9.24;100.00;96977.69;5048567;28;20044;-77
2021/05/15 04:20:11;;;;;;;7.05;1.02;;;;;;;9.50;100.00;96983.81;5048463;28;20040;-77
2021/05/15 04:22:36;;;;;;;3.13;1.10;;;;;;;9.62;100.00;96969.63;5030391;28;20151;-77
2021/05/15 04:25:02;;;;;;;7.38;0.90;;;;;;;9.72;100.00;96967.38;5030057;28;20032;-77
2021/05/15 04:27:32;;;;;;;4.63;1.27;;;;;;;9.73;100.00;96976.28;5026648;28;20555;-77
2021/05/15 04:29:57;;;;;;;4.05;1.23;;;;;;;9.82;100.00;96972.41;5028370;28;20037;-77
2021/05/15 04:32:23;;;;;;;1.48;0.90;;;;;;;9.97;100.00;96976.44;5010792;28;20124;-77
2021/05/15 04:34:48;;;;;;;3.55;0.90;;;;;;;9.96;100.00;96972.19;5043351;28;20294;-77
2021/05/15 04:37:13;;;;;;;4.18;1.10;;;;;;;9.91;100.00;96973.13;5050001;28;20037;-76
2021/05/15 04:39:39;;;;;;;3.25;1.20;;;;;;;9.95;100.00;96979.50;5049867;28;20400;-77
2021/05/15 04:42:04;;;;;;;3.88;1.10;;;;;;;10.00;100.00;96987.41;5049547;28;20111;-75
2021/05/15 04:44:30;;;;;;;2.95;1.20;;;;;;;10.04;100.00;96985.63;5030853;28;20040;-77
2021/05/15 04:46:56;;;;;;;4.47;1.58;;;;;;;10.17;100.00;96980.34;5030224;28;20048;-74
2021/05/15 04:49:21;;;;;;;2.35;0.80;;;;;;;10.20;100.00;96979.69;5030259;28;20095;-74
2021/05/15 04:51:47;;;;;;;2.53;0.90;;;;;;;10.25;100.00;96976.78;5049795;28;20190;-79
2021/05/15 04:54:13;;;;;;;1.63;0.80;;;;;;;10.32;100.00;96982.47;5029733;28;20041;-77
2021/05/15 04:56:39;;;;;;;1.95;0.98;;;;;;;10.38;100.00;96986.56;5047292;28;20087;-77
2021/05/15 04:59:05;;;;;;;3.10;0.90;;;;;;;10.41;100.00;96980.50;5048557;28;20037;-76
2021/05/15 05:01:31;;;;;;;2.30;0.85;;;;;;;10.40;100.00;96979.69;5048240;28;20037;-77
2021/05/15 05:03:57;;;;;;;2.33;0.82;;;;;;;10.49;100.00;96990.47;5048093;28;20029;-77
2021/05/15 05:06:24;;;;;;;3.00;0.90;;;;;;;10.54;100.00;96991.06;5047927;28;20139;-77
2021/05/15 05:08:50;;;;;;;2.58;0.95;;;;;;;10.58;100.00;96993.91;5029479;28;20044;-75
2021/05/15 05:11:16;;;;;;;4.32;1.15;;;;;;;10.59;100.00;96984.66;5048442;28;20037;-78
2021/05/15 05:13:41;;;;;;;3.97;0.80;;;;;;;10.66;100.00;96990.31;5012373;28;20136;-76
2021/05/15 05:16:08;;;;;;;2.42;0.90;;;;;;;10.79;100.00;96991.97;5029236;28;20052;-76
2021/05/15 05:18:33;;;;;;;3.63;0.80;;;;;;;10.84;100.00;96991.75;5018458;28;20430;-77
2021/05/15 05:21:01;;;;;;;2.47;1.05;;;;;;;10.88;100.00;96981.06;5026955;28;20087;-75
2021/05/15 05:23:26;;;;;;;1.70;1.00;;;;;;;10.92;100.00;96990.91;5026404;28;20037;-76
2021/05/15 05:25:52;;;;;;;9.75;1.38;;;;;;;11.04;100.00;96982.84;5010546;28;20041;-77
2021/05/15 05:28:23;;;;;;;1.67;0.73;;;;;;;11.11;100.00;96977.66;5025886;28;20047;-76
2021/05/15 05:30:49;;;;;;;2.80;0.65;;;;;;;11.21;100.00;96985.38;5026509;28;20098;-77
2021/05/15 05:33:15;;;;;;;1.67;0.70;;;;;;;11.28;100.00;96979.41;5026368;28;20041;-77
2021/05/15 05:35:43;;;;;;;3.90;0.93;;;;;;;11.43;100.00;96986.09;5027221;28;20037;-77
2021/05/15 05:38:09;;;;;;;2.63;0.90;;;;;;;11.56;100.00;96966.03;5030257;28;20041;-78
2021/05/15 05:40:35;;;;;;;3.75;0.80;;;;;;;11.67;100.00;96967.94;5047550;28;20318;-77
2021/05/15 05:43:00;;;;;;;2.80;0.80;;;;;;;11.77;100.00;96972.16;5047731;28;20591;-75
2021/05/15 05:45:26;;;;;;;4.28;0.90;;;;;;;11.92;100.00;96979.66;5034040;28;20405;-77
2021/05/15 05:47:51;;;;;;;2.35;0.98;;;;;;;12.05;100.00;96978.50;5050258;28;20048;-77
2021/05/15 05:50:17;;;;;;;4.10;1.08;;;;;;;12.06;100.00;96977.38;5046792;28;20044;-76
2021/05/15 05:52:42;;;;;;;3.38;0.80;;;;;;;12.20;100.00;96980.53;5048187;28;20056;-77
2021/05/15 05:55:08;;;;;;;1.48;0.90;;;;;;;12.40;100.00;96981.50;5047790;28;20041;-77
2021/05/15 05:57:34;;;;;;;2.90;0.80;;;;;;;12.60;100.00;96977.03;5048696;28;20086;-78
2021/05/15 05:59:59;;;;;;;2.50;0.80;;;;;;;12.75;100.00;96982.53;5048569;28;20660;-78
2021/05/15 06:02:24;;;;;;;4.53;0.88;;;;;;;12.90;100.00;96990.00;5048211;28;20415;-78
2021/05/15 06:04:50;;;;;;;2.95;0.90;;;;;;;13.22;100.00;96990.88;5049012;28;20098;-77
2021/05/15 06:07:16;;;;;;;2.28;0.80;;;;;;;13.26;100.00;96986.34;5024743;28;20032;-77
2021/05/15 06:09:42;;;;;;;2.75;0.90;;;;;;;13.27;100.00;96979.75;5047962;28;20131;-76
2021/05/15 06:12:11;;;;;;;3.15;0.90;;;;;;;13.36;100.00;96991.28;5047355;28;20399;-77
2021/05/15 06:14:38;;;;;;;4.30;0.90;;;;;;;13.36;100.00;96988.56;5048507;28;20072;-76
2021/05/15 06:17:03;;;;;;;2.90;0.75;;;;;;;13.49;100.00;96992.78;5048651;28;20506;-78
2021/05/15 06:19:29;;;;;;;1.67;0.70;;;;;;;13.50;100.00;96993.56;5048583;28;20068;-77
2021/05/15 06:21:54;;;;;;;3.40;0.90;;;;;;;13.55;100.00;96993.31;5033389;28;20080;-78
2021/05/15 06:24:20;;;;;;;2.67;0.90;;;;;;;13.47;100.00;96995.03;5038260;28;20432;-79
2021/05/15 06:26:45;;;;;;;5.88;1.02;;;;;;;13.69;100.00;97002.63;5059345;28;20040;-77
2021/05/15 06:29:11;;;;;;;3.63;0.80;;;;;;;13.34;100.00;97004.44;5052137;28;20051;-77
2021/05/15 06:31:36;;;;;;;3.33;0.82;;;;;;;13.25;100.00;96995.63;5030945;28;20608;-76
2021/05/15 06:34:02;;;;;;;2.03;0.70;;;;;;;13.21;100.00;97000.19;5021056;28;20060;-76
2021/05/15 06:36:27;;;;;;;4.43;0.85;;;;;;;13.16;100.00;97005.88;5058855;22;20081;-76
2021/05/15 06:38:52;;;;;;;2.72;0.93;;;;;;;13.40;100.00;96997.59;5013483;28;20068;-79
2021/05/15 06:41:18;;;;;;;3.17;1.10;;;;;;;13.05;100.00;97002.81;5026171;28;20022;-78
2021/05/15 06:43:43;;;;;;;4.70;0.80;;;;;;;13.17;100.00;97009.34;5002109;28;20092;-77
2021/05/15 06:46:09;;;;;;;2.13;0.77;;;;;;;13.09;100.00;96997.50;5023948;28;20053;-78
2021/05/15 06:48:34;;;;;;;4.15;0.98;;;;;;;13.26;100.00;96999.94;4994425;28;20103;-78
2021/05/15 06:51:00;;;;;;;3.13;0.90;;;;;;;13.32;100.00;96997.72;5027654;28;20054;-78
2021/05/15 06:53:26;;;;;;;6.38;0.80;;;;;;;13.51;100.00;96995.94;5023078;28;20021;-79
2021/05/15 06:55:51;;;;;;;2.30;0.80;;;;;;;13.63;100.00;97001.28;5021663;28;20049;-75
2021/05/15 06:58:17;;;;;;;2.28;0.77;;;;;;;13.82;100.00;96986.22;4977722;28;20077;-74
2021/05/15 07:00:42;;;;;;;4.85;0.95;;;;;;;13.79;100.00;96995.88;5008464;28;20564;-69
2021/05/15 07:03:08;;;;;;;2.08;0.80;;;;;;;13.83;100.00;96995.97;5007777;28;20385;-74
2021/05/15 07:05:34;;;;;;;2.25;0.73;;;;;;;13.92;100.00;96996.56;5007353;28;20065;-75
2021/05/15 07:08:01;;;;;;;2.88;0.80;;;;;;;13.89;100.00;97000.00;5005456;28;20080;-74
2021/05/15 07:10:30;;;;;;;3.10;0.95;;;;;;;13.86;100.00;97006.16;5010055;28;20038;-81
2021/05/15 07:12:58;;;;;;;2.38;0.75;;;;;;;13.98;100.00;97003.34;5011287;28;20408;-77
2021/05/15 07:15:23;;;;;;;5.43;0.80;;;;;;;14.06;100.00;97002.38;5011257;28;20317;-76
2021/05/15 07:17:49;;;;;;;6.30;1.13;;;;;;;14.20;100.00;97003.47;5012836;28;20033;-78
2021/05/15 07:20:15;;;;;;;3.75;0.88;;;;;;;14.45;100.00;97011.47;4995074;28;20041;-76
2021/05/15 07:22:42;;;;;;;1.52;0.75;;;;;;;14.06;100.00;96997.72;5013836;28;20124;-77
2021/05/15 07:25:09;;;;;;;2.55;0.73;;;;;;;13.85;100.00;97010.00;5036124;28;20088;-78
2021/05/15 07:27:34;;;;;;;5.82;0.80;;;;;;;13.85;100.00;97002.63;5027140;28;20057;-78
2021/05/15 07:30:01;;;;;;;4.53;0.70;;;;;;;13.67;100.00;96999.47;5029679;28;20067;-75
2021/05/15 07:32:26;;;;;;;4.70;0.90;;;;;;;13.91;100.00;97011.34;5012982;28;20065;-78
2021/05/15 07:34:52;;;;;;;5.93;0.60;;;;;;;13.95;100.00;96996.66;4996590;28;20147;-77
2021/05/15 07:37:21;;;;;;;3.83;0.70;;;;;;;14.39;100.00;97008.22;5005489;28;20045;-77
2021/05/15 07:39:48;;;;;;;2.60;1.05;;;;;;;14.65;100.00;97003.00;5020134;28;20117;-77
2021/05/15 07:42:13;;;;;;;2.70;0.60;;;;;;;14.59;100.00;96998.97;5030630;28;20060;-76
2021/05/15 07:44:39;;;;;;;2.10;0.60;;;;;;;14.27;100.00;96986.53;5031290;28;20040;-78
2021/05/15 07:47:05;;;;;;;2.33;0.68;;;;;;;13.93;100.00;97006.31;5031793;28;20828;-76
2021/05/15 07:49:30;;;;;;;6.13;0.80;;;;;;;13.79;100.00;96998.59;5028911;28;20064;-75
2021/05/15 07:51:56;;;;;;;1.65;0.73;;;;;;;13.75;100.00;96989.56;5014196;28;22001;-75
2021/05/15 07:54:22;;;;;;;4.13;0.70;;;;;;;13.69;100.00;96994.47;5033208;28;20146;-75
2021/05/15 07:56:49;;;;;;;2.17;0.55;;;;;;;13.26;100.00;97007.28;5022038;28;20037;-76
2021/05/15 07:59:16;;;;;;;3.20;0.70;;;;;;;13.44;100.00;97006.66;5035903;28;20295;-77
2021/05/15 08:01:41;;;;;;;2.42;0.68;;;;;;;13.87;100.00;97005.78;5014801;28;20048;-77
2021/05/15 08:04:09;;;;;;;1.92;0.65;;;;;;;14.45;100.00;96998.66;5030097;28;20037;-77
2021/05/15 08:06:34;;;;;;;2.72;0.90;;;;;;;14.95;100.00;97003.22;5029906;28;20037;-77
2021/05/15 08:09:00;;;;;;;3.08;1.00;;;;;;;15.37;100.00;97008.72;4995349;28;20047;-76
2021/05/15 08:11:26;;;;;;;3.97;0.60;;;;;;;15.23;100.00;97009.25;5029055;28;20077;-78
2021/05/15 08:13:51;;;;;;;1.60;0.63;;;;;;;14.97;100.00;96998.19;5017975;28;20041;-77
2021/05/15 08:16:17;;;;;;;2.78;0.50;;;;;;;14.76;100.00;97011.41;4998640;28;20041;-77
2021/05/15 08:18:43;;;;;;;4.20;0.80;;;;;;;14.74;100.00;97008.22;5028637;28;20045;-77
2021/05/15 08:21:09;;;;;;;2.08;0.70;;;;;;;14.73;100.00;97012.09;5034333;28;20037;-78
2021/05/15 08:23:36;;;;;;;1.55;0.52;;;;;;;14.43;100.00;97008.31;5011650;28;20349;-77
2021/05/15 08:26:06;;;;;;;3.25;0.85;;;;;;;14.38;100.00;97001.19;5017016;28;20103;-78
2021/05/15 08:28:33;;;;;;;1.38;0.57;;;;;;;14.75;100.00;97004.34;5022817;28;20049;-77
2021/05/15 08:30:58;;;;;;;2.97;0.50;;;;;;;15.20;100.00;97003.75;5000150;28;20409;-77
2021/05/15 08:33:24;;;;;;;2.70;0.60;;;;;;;15.45;100.00;96994.09;5002841;28;20048;-78
2021/05/15 08:35:50;;;;;;;1.88;0.70;;;;;;;15.60;100.00;96998.66;5019006;28;20048;-76
2021/05/15 08:38:16;;;;;;;1.35;0.50;;;;;;;15.55;100.00;96998.97;5001481;28;20037;-77
2021/05/15 08:40:41;;;;;;;1.67;0.57;;;;;;;15.34;100.00;97002.06;5002803;28;20052;-78
2021/05/15 08:43:08;;;;;;;4.53;0.73;;;;;;;14.76;100.00;96993.09;5027684;28;20049;-77
2021/05/15 08:45:33;;;;;;;1.95;0.57;;;;;;;14.57;100.00;96998.53;5019176;28;20539;-76
2021/05/15 08:48:01;;;;;;;1.52;0.70;;;;;;;14.63;100.00;97001.78;5015148;28;20042;-75
2021/05/15 08:50:29;;;;;;;1.20;0.55;;;;;;;14.25;100.00;96996.97;5004872;28;20322;-78
2021/05/15 08:52:56;;;;;;;3.15;0.55;;;;;;;14.11;100.00;96997.44;5010142;28;20037;-77
2021/05/15 08:55:30;;;;;;;2.15;0.80;;;;;;;14.21;100.00;96993.38;5034398;28;20041;-78
2021/05/15 08:57:57;;;;;;;2.97;0.63;;;;;;;14.17;100.00;96992.50;5003015;28;20041;-78
2021/05/15 09:00:31;;;;;;;1.15;0.50;;;;;;;14.25;100.00;96984.16;5018054;28;20056;-78
2021/05/15 09:02:59;;;;;;;2.75;0.68;;;;;;;14.73;100.00;96990.31;5008802;28;20042;-78
2021/05/15 09:05:30;;;;;;;2.53;0.70;;;;;;;14.97;100.00;96993.53;5017737;28;20049;-78
2021/05/15 09:07:59;;;;;;;1.35;0.50;;;;;;;14.94;100.00;96988.78;5016194;28;20048;-75
2021/05/15 09:10:35;;;;;;;3.67;0.90;;;;;;;15.24;100.00;96994.47;5016682;28;20061;-77
2021/05/15 09:13:23;;;;;;;1.40;0.73;;;;;;;15.34;100.00;96984.91;5044171;28;20057;-77
2021/05/15 09:15:57;;;;;;;2.30;0.75;;;;;;;15.41;100.00;96987.75;5011819;28;20061;-76
2021/05/15 09:18:29;;;;;;;2.38;0.70;;;;;;;15.34;100.00;96982.97;5023832;28;20325;-75
2021/05/15 09:20:58;;;;;;;1.25;0.60;;;;;;;15.02;100.00;96995.19;5037564;28;20454;-77
2021/05/15 09:23:27;;;;;;;0.70;0.50;;;;;;;15.04;100.00;96992.09;5036156;28;20053;-78
2021/05/15 09:26:04;;;;;;;2.92;0.70;;;;;;;15.13;100.00;96990.72;5001299;28;20132;-76
2021/05/15 09:28:43;;;;;;;3.45;0.70;;;;;;;15.14;100.00;96992.31;5025689;28;20057;-77
2021/05/15 09:31:23;;;;;;;1.70;0.75;;;;;;;15.26;100.00;96983.97;5016474;28;20060;-76
2021/05/15 09:34:01;;;;;;;4.22;0.80;;;;;;;16.38;100.00;96983.56;5001448;28;20280;-76
2021/05/15 09:36:35;;;;;;;1.15;0.60;;;;;;;16.95;100.00;96979.69;5031965;28;20041;-77
2021/05/15 09:39:08;;;;;;;4.07;0.80;;;;;;;16.27;100.00;96985.34;5003467;28;20053;-76
2021/05/15 09:42:01;;;;;;;2.72;0.68;;;;;;;15.90;100.00;96980.47;5021447;28;20049;-77
2021/05/15 09:44:33;;;;;;;2.38;0.98;;;;;;;16.06;100.00;96980.34;5016388;28;20056;-77
2021/05/15 09:47:02;;;;;;;2.55;0.93;;;;;;;17.45;100.00;96974.41;5013884;28;20046;-77
2021/05/15 09:49:31;;;;;;;3.53;2.08;;;;;;;18.20;100.00;96972.34;5015250;28;20054;-77
2021/05/15 09:52:08;;;;;;;2.40;0.90;;;;;;;18.22;100.00;96961.81;5021484;28;20061;-76
2021/05/15 09:54:38;;;;;;;12.30;1.27;;;;;;;18.02;100.00;96959.31;5020629;28;20319;-76
2021/05/15 09:57:11;;;;;;;2.13;0.63;;;;;;;17.47;100.00;96945.88;5017005;28;20660;-75
2021/05/15 09:59:40;;;;;;;4.78;2.25;;;;;;;17.74;100.00;96952.81;5016521;28;20045;-77
2021/05/15 10:02:15;;;;;;;1.85;0.60;;;;;;;17.50;100.00;96945.91;5004142;28;20220;-77
2021/05/15 10:04:43;;;;;;;;;;;;;;;17.47;100.00;96943.94;4999498;28;20057;-77
2021/05/15 10:07:25;;;;;;;2.55;0.63;;;;;;;17.64;100.00;96940.59;4994380;28;20020;-77
2021/05/15 10:09:52;;;;;;;2.00;0.60;;;;;;;18.17;100.00;96938.28;5020076;28;20046;-79
2021/05/15 10:12:20;;;;;;;1.42;0.73;;;;;;;18.20;100.00;96934.78;5018213;28;20122;-76
2021/05/15 10:14:49;;;;;;;1.48;0.60;;;;;;;17.88;100.00;96937.31;5017138;28;20041;-78
2021/05/15 10:17:15;;;;;;;2.72;0.47;;;;;;;17.57;100.00;96931.53;5013561;28;20049;-78
2021/05/15 10:19:42;;;;;;;2.42;0.75;;;;;;;16.45;100.00;96932.53;4982355;28;20319;-78
2021/05/15 10:22:09;;;;;;;1.75;0.60;;;;;;;16.49;100.00;96927.91;5013233;28;20444;-75
2021/05/15 10:24:37;;;;;;;2.65;0.57;;;;;;;16.64;100.00;96937.91;5030220;28;20045;-76
2021/05/15 10:27:12;;;;;;;2.03;0.40;;;;;;;16.63;100.00;96927.34;5034700;28;20053;-76
2021/05/15 10:29:50;;;;;;;4.90;1.10;;;;;;;16.66;100.00;96926.59;5008596;28;20057;-74
2021/05/15 10:32:25;;;;;;;2.13;0.73;;;;;;;16.19;100.00;96929.81;5028872;28;20052;-77
2021/05/15 10:35:26;;;;;;;3.08;0.70;;;;;;;16.45;100.00;96931.75;4995618;28;20057;-77
2021/05/15 10:38:13;;;;;;;1.67;0.90;;;;;;;18.39;100.00;96925.53;5017981;28;20041;-76
2021/05/15 10:40:55;;;;;;;4.03;1.05;;;;;;;19.47;100.00;96918.13;5005602;28;20050;-77
2021/05/15 10:43:36;;;;;;;1.95;0.70;;;;;;;20.58;100.00;96906.72;5013103;28;20812;-76
2021/05/15 10:46:16;;;;;;;3.65;0.80;;;;;;;21.35;100.00;96909.16;5012590;28;20053;-79
2021/05/15 10:48:55;;;;;;;2.00;0.70;;;;;;;23.46;69.37;96899.97;5026311;28;20075;-77
2021/05/15 10:51:46;;;;;;;1.80;0.63;;;;;;;24.37;57.56;96889.41;5032031;28;20041;-79
2021/05/15 10:54:38;;;;;;;2.35;0.50;;;;;;;24.87;55.84;96882.94;5017250;28;20072;-78
2021/05/15 10:57:12;;;;;;;2.25;0.60;;;;;;;24.61;51.50;96876.31;5039386;28;20381;-77
2021/05/15 10:59:41;;;;;;;3.17;0.70;;;;;;;23.86;56.20;96884.34;5018500;28;20049;-79
2021/05/15 11:02:13;;;;;;;1.65;0.52;;;;;;;25.40;46.21;96872.25;5037071;28;20767;-75
2021/05/15 11:04:54;;;;;;;0.98;0.60;;;;;;;25.93;47.12;96856.38;5031888;28;20052;-77
2021/05/15 11:07:39;;;;;;;2.63;1.40;;;;;;;23.03;49.63;96874.09;5019461;28;20110;-76
2021/05/15 11:10:12;;;;;;;1.52;0.80;;;;;;;21.08;67.23;96861.34;5000731;28;20058;-72
2021/05/15 11:12:41;;;;;;;1.60;0.82;;;;;;;19.40;100.00;96852.25;5028597;28;20160;-76
2021/05/15 11:15:10;;;;;;;2.60;0.60;;;;;;;20.96;70.01;96846.03;5001395;28;20055;-75
2021/05/15 11:17:37;;;;;;;1.98;0.57;;;;;;;22.01;85.01;96848.44;5022780;28;20064;-78
2021/05/15 11:20:10;;;;;;;1.50;0.50;;;;;;;23.11;66.81;96840.47;5010927;28;20053;-75
2021/05/15 11:22:50;;;;;;;2.05;0.65;;;;;;;22.52;54.23;96840.03;5014569;28;20042;-79
2021/05/15 11:25:27;;;;;;;0.98;0.43;;;;;;;23.09;48.56;96842.88;4996070;28;20050;-79
2021/05/15 11:27:56;;;;;;;3.90;0.57;;;;;;;23.62;48.56;96844.84;5015674;28;20050;-77
2021/05/15 11:30:29;;;;;;;0.90;0.47;;;;;;;24.65;44.15;96838.25;5018493;28;20413;-76